Time;durP1;ratioP1;P1;durP2;ratioP2;P2;SDS_P1;SDS_P2;PMS_P1;PMS_P2;Temp;Humidity;BMP_temperature;BMP_pressure;BME280_temperature;BME280_humidity;BME280_pressure;Samples;Min_cycle;Max_cycle;Signal;HPM_P1;HPM_P2
2024/02/02 00:02:07;;;;;;;11.02;3.72;;;7.10;90.30;;;;;;5073460;28;20082;-34
2024/02/02 00:04:33;;;;;;;13.20;3.50;;;7.10;90.30;;;;;;5073500;28;20512;-33
2024/02/02 00:06:58;;;;;;;14.45;3.92;;;7.20;90.30;;;;;;5073426;28;20025;-33
2024/02/02 00:09:24;;;;;;;13.35;3.80;;;7.10;90.30;;;;;;5073426;28;20461;-34
2024/02/02 00:11:49;;;;;;;12.95;3.53;;;7.20;90.20;;;;;;5073407;28;20048;-34
2024/02/02 00:14:15;;;;;;;17.23;4.40;;;7.20;90.20;;;;;;5073553;28;20016;-33
2024/02/02 00:16:40;;;;;;;14.52;3.92;;;7.10;90.20;;;;;;5073215;28;20108;-35
2024/02/02 00:19:06;;;;;;;10.23;3.45;;;7.10;90.20;;;;;;5073305;28;20100;-35
2024/02/02 00:21:32;;;;;;;12.80;4.20;;;7.20;90.30;;;;;;5072543;28;20035;-35
2024/02/02 00:23:57;;;;;;;12.88;3.88;;;7.20;90.20;;;;;;5073471;28;20464;-35
2024/02/02 00:26:23;;;;;;;15.52;4.20;;;7.10;90.10;;;;;;5073009;28;20059;-35
2024/02/02 00:28:48;;;;;;;12.40;4.40;;;7.10;90.10;;;;;;5072825;28;20035;-35
2024/02/02 00:31:14;;;;;;;16.17;4.32;;;7.10;90.20;;;;;;5073062;28;20431;-34
2024/02/02 00:33:39;;;;;;;15.23;4.90;;;7.10;90.10;;;;;;5072979;28;20016;-35
2024/02/02 00:36:05;;;;;;;13.02;4.22;;;7.10;90.10;;;;;;5072982;28;20096;-34
2024/02/02 00:38:31;;;;;;;14.85;4.35;;;7.10;90.20;;;;;;5072787;28;20032;-35
2024/02/02 00:40:56;;;;;;;15.13;4.50;;;7.10;90.10;;;;;;5072659;28;20078;-35
2024/02/02 00:43:22;;;;;;;12.27;4.35;;;7.10;90.20;;;;;;5072882;28;20028;-35
2024/02/02 00:45:48;;;;;;;16.73;5.10;;;7.10;90.20;;;;;;5072651;28;20024;-35
2024/02/02 00:48:13;;;;;;;11.90;4.60;;;7.10;90.20;;;;;;5072721;28;20526;-35
2024/02/02 00:50:39;;;;;;;17.42;5.07;;;7.10;90.20;;;;;;5071411;28;20013;-34
2024/02/02 00:53:04;;;;;;;15.68;5.43;;;7.10;90.20;;;;;;5072672;28;20476;-35
2024/02/02 00:55:30;;;;;;;15.02;5.63;;;7.10;90.20;;;;;;5072491;28;20024;-36
2024/02/02 00:57:55;;;;;;;13.32;4.72;;;7.10;90.20;;;;;;5072402;28;20108;-34
2024/02/02 01:00:21;;;;;;;16.95;5.80;;;7.10;90.20;;;;;;5072564;28;20033;-35
2024/02/02 01:02:47;;;;;;;20.02;6.03;;;7.10;90.10;;;;;;5072229;28;20063;-35
2024/02/02 01:05:13;;;;;;;15.27;4.90;;;7.10;90.10;;;;;;5072361;28;20415;-41
2024/02/02 01:07:39;;;;;;;14.40;4.30;;;7.00;90.20;;;;;;5071987;28;20025;-35
2024/02/02 01:10:05;;;;;;;13.15;4.65;;;7.10;90.30;;;;;;5072576;28;20046;-34
2024/02/02 01:12:32;;;;;;;13.27;4.75;;;7.10;90.30;;;;;;5072601;28;20021;-34
2024/02/02 01:14:57;;;;;;;17.98;5.50;;;7.10;90.50;;;;;;5072033;28;20017;-34
2024/02/02 01:17:23;;;;;;;14.30;5.57;;;7.10;90.20;;;;;;5071892;28;20028;-35
2024/02/02 01:19:49;;;;;;;18.23;5.53;;;7.10;90.30;;;;;;5071990;28;20048;-34
2024/02/02 01:22:15;;;;;;;17.65;6.10;;;7.10;90.30;;;;;;5072203;28;20554;-35
2024/02/02 01:24:40;;;;;;;14.07;5.35;;;7.10;90.30;;;;;;5071974;28;20056;-35
2024/02/02 01:27:06;;;;;;;15.60;5.15;;;7.10;90.30;;;;;;5070580;28;20058;-34
2024/02/02 01:29:33;;;;;;;18.02;5.40;;;7.10;90.30;;;;;;5072255;28;20066;-34
2024/02/02 01:31:59;;;;;;;16.83;5.05;;;7.10;90.30;;;;;;5071670;28;20021;-35
2024/02/02 01:34:25;;;;;;;17.30;4.97;;;7.10;90.30;;;;;;5069823;28;20372;-33
2024/02/02 01:36:52;;;;;;;13.43;5.10;;;7.20;90.30;;;;;;5071562;28;20036;-33
2024/02/02 01:39:17;;;;;;;15.05;5.28;;;7.10;90.30;;;;;;5071749;28;20051;-34
2024/02/02 01:41:45;;;;;;;17.05;5.00;;;7.10;90.30;;;;;;5071708;28;20028;-34
2024/02/02 01:44:11;;;;;;;13.88;4.97;;;7.20;90.30;;;;;;5071672;28;20057;-34
2024/02/02 01:46:36;;;;;;;14.57;4.72;;;7.20;90.20;;;;;;5071524;28;20078;-33
2024/02/02 01:49:02;;;;;;;16.05;5.47;;;7.20;90.20;;;;;;5071585;28;20012;-35
2024/02/02 01:51:28;;;;;;;17.27;5.65;;;7.20;90.20;;;;;;5071622;28;20020;-32
2024/02/02 01:53:54;;;;;;;14.95;4.47;;;7.20;90.20;;;;;;5071610;28;20012;-33
2024/02/02 01:56:20;;;;;;;13.10;4.20;;;7.20;90.20;;;;;;5071514;28;20029;-34
2024/02/02 01:58:47;;;;;;;18.73;4.90;;;7.20;90.30;;;;;;5071530;28;20384;-33
2024/02/02 02:01:13;;;;;;;17.40;4.43;;;7.20;90.20;;;;;;5071166;28;20028;-35
2024/02/02 02:03:39;;;;;;;19.70;5.00;;;7.20;90.20;;;;;;5071195;28;20469;-34
2024/02/02 02:06:04;;;;;;;18.48;4.97;;;7.20;90.20;;;;;;5071499;28;20162;-35
2024/02/02 02:08:30;;;;;;;17.15;4.07;;;7.20;90.20;;;;;;5071532;28;20532;-35
2024/02/02 02:10:57;;;;;;;14.00;4.38;;;7.30;90.20;;;;;;5071352;28;20469;-34
2024/02/02 02:13:26;;;;;;;15.07;4.40;;;7.30;90.20;;;;;;5071712;28;20104;-35
2024/02/02 02:15:53;;;;;;;16.35;4.28;;;7.30;90.10;;;;;;5071686;28;20106;-34
2024/02/02 02:18:18;;;;;;;14.00;4.13;;;7.30;90.10;;;;;;5070963;28;20020;-34
2024/02/02 02:20:47;;;;;;;14.98;4.10;;;7.30;90.10;;;;;;5071613;28;20116;-35
2024/02/02 02:23:12;;;;;;;16.17;4.95;;;7.30;90.10;;;;;;5071462;28;20025;-36
2024/02/02 02:25:38;;;;;;;15.00;4.20;;;7.30;90.30;;;;;;5071197;28;20025;-34
2024/02/02 02:28:04;;;;;;;14.90;4.40;;;7.30;90.10;;;;;;5071135;28;20098;-33
2024/02/02 02:30:29;;;;;;;14.52;3.95;;;7.20;90.10;;;;;;5071433;28;20017;-35
2024/02/02 02:32:55;;;;;;;12.18;4.20;;;7.30;90.10;;;;;;5071499;28;20024;-34
2024/02/02 02:35:21;;;;;;;21.20;4.90;;;7.30;90.10;;;;;;5071121;28;20045;-35
2024/02/02 02:37:46;;;;;;;14.98;3.83;;;7.30;90.10;;;;;;5071066;28;20020;-34
2024/02/02 02:40:12;;;;;;;15.02;4.18;;;7.40;90.10;;;;;;5071198;28;20108;-35
2024/02/02 02:42:38;;;;;;;13.23;4.30;;;7.30;90.00;;;;;;5070967;28;20029;-33
2024/02/02 02:45:04;;;;;;;17.15;4.78;;;7.40;90.00;;;;;;5073521;28;20032;-34
2024/02/02 02:47:29;;;;;;;17.52;4.90;;;7.40;90.00;;;;;;5074626;28;20039;-33
2024/02/02 02:49:55;;;;;;;15.85;4.68;;;7.40;89.90;;;;;;5074938;28;20025;-34
2024/02/02 02:52:20;;;;;;;14.82;4.72;;;7.30;89.90;;;;;;5074901;28;20560;-33
2024/02/02 02:54:46;;;;;;;15.18;4.22;;;7.30;89.90;;;;;;5074766;28;20028;-33
2024/02/02 02:57:11;;;;;;;16.67;4.50;;;7.30;89.90;;;;;;5074678;28;20107;-34
2024/02/02 02:59:37;;;;;;;15.10;4.70;;;7.30;89.90;;;;;;5074739;28;20043;-33
2024/02/02 03:02:03;;;;;;;16.33;4.82;;;7.40;89.80;;;;;;5074556;28;20503;-34
2024/02/02 03:04:28;;;;;;;18.25;4.80;;;7.40;89.90;;;;;;5074921;28;20028;-34
2024/02/02 03:06:54;;;;;;;18.17;4.50;;;7.40;90.20;;;;;;5074258;28;20392;-35
2024/02/02 03:09:20;;;;;;;15.27;4.88;;;7.40;89.80;;;;;;5074481;28;20100;-34
2024/02/02 03:11:45;;;;;;;14.50;4.53;;;7.40;90.10;;;;;;5074758;28;20112;-32
2024/02/02 03:14:11;;;;;;;16.55;5.10;;;7.40;89.70;;;;;;5074320;28;20021;-33
2024/02/02 03:16:37;;;;;;;18.58;5.45;;;7.40;89.60;;;;;;5074084;28;20029;-33
2024/02/02 03:19:04;;;;;;;17.48;4.90;;;7.40;89.50;;;;;;5074599;28;20108;-34
2024/02/02 03:21:29;;;;;;;14.18;4.57;;;7.40;89.40;;;;;;5074640;28;20052;-34
2024/02/02 03:23:55;;;;;;;10.68;4.85;;;7.40;89.40;;;;;;5074313;28;20113;-34
2024/02/02 03:26:20;;;;;;;20.65;5.45;;;7.40;89.40;;;;;;5074119;28;20112;-34
2024/02/02 03:28:46;;;;;;;15.35;4.72;;;7.40;89.40;;;;;;5074086;28;20012;-34
2024/02/02 03:31:12;;;;;;;14.80;5.15;;;7.40;89.40;;;;;;5074157;28;20370;-35
2024/02/02 03:33:37;;;;;;;19.45;5.47;;;7.30;89.30;;;;;;5074355;28;20021;-35
2024/02/02 03:36:03;;;;;;;14.98;5.78;;;7.30;89.40;;;;;;5073941;28;20408;-34
2024/02/02 03:38:28;;;;;;;17.42;6.10;;;7.30;89.40;;;;;;5074089;28;20028;-34
2024/02/02 03:40:54;;;;;;;16.45;5.13;;;7.20;89.40;;;;;;5074223;28;20040;-35
2024/02/02 03:43:20;;;;;;;13.13;5.28;;;7.20;89.40;;;;;;5074061;28;20031;-34
2024/02/02 03:45:45;;;;;;;16.52;6.15;;;7.20;89.50;;;;;;5073811;28;20035;-33
2024/02/02 03:48:11;;;;;;;17.40;5.90;;;7.30;89.50;;;;;;5072233;28;20489;-35
2024/02/02 03:50:36;;;;;;;16.75;5.68;;;7.20;89.50;;;;;;5073691;28;20078;-34
2024/02/02 03:53:02;;;;;;;18.05;6.28;;;7.20;89.40;;;;;;5073694;28;20055;-35
2024/02/02 03:55:28;;;;;;;15.82;6.35;;;7.20;89.40;;;;;;5072760;28;20717;-34
2024/02/02 03:57:53;;;;;;;14.88;5.50;;;7.20;89.40;;;;;;5073658;28;20023;-34
2024/02/02 04:00:19;;;;;;;15.85;6.35;;;7.10;89.40;;;;;;5073574;28;20028;-33
2024/02/02 04:02:45;;;;;;;14.93;5.47;;;7.20;89.40;;;;;;5073528;28;20056;-34
2024/02/02 04:05:11;;;;;;;18.13;6.65;;;7.10;89.40;;;;;;5073472;28;20107;-33
2024/02/02 04:07:36;;;;;;;20.23;6.53;;;7.10;89.30;;;;;;5073250;28;20107;-33
2024/02/02 04:10:03;;;;;;;18.35;6.50;;;7.10;89.30;;;;;;5073432;28;20060;-34
2024/02/02 04:12:28;;;;;;;18.00;5.70;;;7.10;89.20;;;;;;5073703;28;20481;-33
2024/02/02 04:14:54;;;;;;;15.48;6.15;;;7.10;89.30;;;;;;5073284;28;20107;-34
2024/02/02 04:17:19;;;;;;;20.67;6.93;;;7.10;89.20;;;;;;5073074;28;20511;-33
2024/02/02 04:19:45;;;;;;;15.07;6.03;;;7.10;89.20;;;;;;5073499;28;20067;-34
2024/02/02 04:22:11;;;;;;;12.30;5.63;;;7.10;89.20;;;;;;5073487;28;20025;-32
2024/02/02 04:24:37;;;;;;;13.02;5.53;;;7.00;89.70;;;;;;5073155;28;20060;-33
2024/02/02 04:27:03;;;;;;;17.40;5.95;;;7.10;89.20;;;;;;5072169;28;20032;-34
2024/02/02 04:29:28;;;;;;;19.77;6.97;;;7.10;89.10;;;;;;5073113;28;20077;-32
2024/02/02 04:31:54;;;;;;;16.63;6.10;;;7.00;89.00;;;;;;5071607;28;20025;-42
2024/02/02 04:34:19;;;;;;;17.67;6.15;;;7.00;88.80;;;;;;5073055;28;20048;-33
2024/02/02 04:36:45;;;;;;;17.13;5.75;;;7.00;88.80;;;;;;5073197;28;20012;-33
2024/02/02 04:39:11;;;;;;;15.02;5.60;;;7.10;88.80;;;;;;5072828;28;20400;-34
2024/02/02 04:41:36;;;;;;;15.55;5.93;;;7.10;88.70;;;;;;5072749;28;20142;-33
2024/02/02 04:44:02;;;;;;;18.17;5.88;;;7.10;88.60;;;;;;5072798;28;20492;-34
2024/02/02 04:46:28;;;;;;;18.70;6.18;;;7.10;88.60;;;;;;5072812;28;20031;-34
2024/02/02 04:48:53;;;;;;;18.30;5.63;;;7.10;88.50;;;;;;5072750;28;20027;-35
2024/02/02 04:51:19;;;;;;;12.70;4.80;;;7.10;88.50;;;;;;5072692;28;20017;-34
2024/02/02 04:53:45;;;;;;;14.82;5.85;;;7.10;89.10;;;;;;5072528;28;20027;-35
2024/02/02 04:56:10;;;;;;;13.82;5.35;;;7.10;88.30;;;;;;5072412;28;20021;-34
2024/02/02 04:58:36;;;;;;;13.07;4.88;;;7.00;88.40;;;;;;5072315;28;20392;-35
2024/02/02 05:01:01;;;;;;;16.95;5.22;;;7.00;88.50;;;;;;5072724;28;20020;-35
2024/02/02 05:03:30;;;;;;;12.68;5.07;;;7.00;88.50;;;;;;5072339;28;20027;-35
2024/02/02 05:05:56;;;;;;;13.48;4.65;;;7.00;88.50;;;;;;5072604;28;20027;-33
2024/02/02 05:08:21;;;;;;;11.65;4.38;;;7.00;88.40;;;;;;5071959;28;20126;-35
2024/02/02 05:10:47;;;;;;;11.43;4.75;;;7.00;88.50;;;;;;5070952;28;20031;-32
2024/02/02 05:13:12;;;;;;;13.30;5.32;;;7.00;88.60;;;;;;5072287;28;20021;-33
2024/02/02 05:15:39;;;;;;;17.67;5.05;;;7.00;88.50;;;;;;5072156;28;20477;-32
2024/02/02 05:18:06;;;;;;;15.85;5.15;;;6.90;88.40;;;;;;5071906;28;20028;-34
2024/02/02 05:20:32;;;;;;;15.45;5.00;;;7.00;88.60;;;;;;5072109;28;20017;-34
2024/02/02 05:22:58;;;;;;;21.50;6.07;;;6.90;88.50;;;;;;5072073;28;20025;-33
2024/02/02 05:25:23;;;;;;;14.07;5.45;;;6.90;88.50;;;;;;5071978;28;20021;-43
2024/02/02 05:27:49;;;;;;;12.75;4.35;;;6.90;88.50;;;;;;5071695;28;20025;-33
2024/02/02 05:30:14;;;;;;;17.05;4.70;;;6.90;88.50;;;;;;5071938;28;20487;-34
2024/02/02 05:32:40;;;;;;;15.93;4.70;;;6.90;88.60;;;;;;5072108;28;20488;-33
2024/02/02 05:35:06;;;;;;;12.23;4.60;;;6.90;88.60;;;;;;5071801;28;20040;-34
2024/02/02 05:37:33;;;;;;;15.80;4.50;;;6.90;88.70;;;;;;5071681;28;20020;-35
2024/02/02 05:39:59;;;;;;;11.20;4.20;;;6.90;88.70;;;;;;5071531;28;20503;-35
2024/02/02 05:42:24;;;;;;;13.23;4.60;;;6.90;88.70;;;;;;5071915;28;20025;-35
2024/02/02 05:44:50;;;;;;;10.18;4.15;;;6.90;88.80;;;;;;5071654;28;20108;-35
2024/02/02 05:47:15;;;;;;;14.80;4.20;;;6.90;88.80;;;;;;5071482;28;20106;-34
2024/02/02 05:49:41;;;;;;;13.50;4.32;;;6.90;88.80;;;;;;5071581;28;20025;-33
2024/02/02 05:52:09;;;;;;;10.95;4.18;;;6.90;88.80;;;;;;5071808;28;20024;-33
2024/02/02 05:54:35;;;;;;;17.85;4.53;;;6.90;88.80;;;;;;5071436;28;20021;-33
2024/02/02 05:57:01;;;;;;;13.50;4.40;;;6.90;89.50;;;;;;5071774;28;20052;-33
2024/02/02 05:59:27;;;;;;;15.20;3.80;;;6.90;88.90;;;;;;5071537;28;20048;-34
2024/02/02 06:01:52;;;;;;;9.70;4.07;;;6.90;89.00;;;;;;5071232;28;20091;-34
2024/02/02 06:04:18;;;;;;;13.57;3.88;;;6.90;89.00;;;;;;5071826;28;20399;-33
2024/02/02 06:06:43;;;;;;;13.10;3.85;;;6.90;89.10;;;;;;5071460;28;20109;-34
2024/02/02 06:09:11;;;;;;;13.88;3.80;;;6.90;89.20;;;;;;5071406;28;20412;-34
2024/02/02 06:11:37;;;;;;;18.00;4.35;;;6.90;89.20;;;;;;5071605;28;20043;-34
2024/02/02 06:14:02;;;;;;;21.13;4.70;;;6.80;89.20;;;;;;5071693;28;20020;-35
2024/02/02 06:16:28;;;;;;;14.32;4.13;;;6.80;89.30;;;;;;5071304;28;20019;-31
2024/02/02 06:18:54;;;;;;;13.98;4.32;;;6.80;89.40;;;;;;5072136;28;20472;-34
2024/02/02 06:21:20;;;;;;;15.60;4.07;;;6.80;89.50;;;;;;5075948;28;20020;-34
2024/02/02 06:23:45;;;;;;;21.63;5.05;;;6.80;89.50;;;;;;5075476;28;20024;-34
2024/02/02 06:26:11;;;;;;;19.55;4.53;;;6.80;89.60;;;;;;5075729;28;20024;-34
2024/02/02 06:28:37;;;;;;;16.60;3.70;;;6.80;89.60;;;;;;5075588;28;20025;-34
2024/02/02 06:31:03;;;;;;;16.52;4.22;;;6.80;89.70;;;;;;5075700;28;20025;-35
2024/02/02 06:33:29;;;;;;;15.13;4.00;;;6.80;89.70;;;;;;5075576;28;20036;-35
2024/02/02 06:35:54;;;;;;;16.65;3.85;;;6.80;89.70;;;;;;5073665;28;20119;-36
2024/02/02 06:38:20;;;;;;;17.05;4.13;;;6.80;89.80;;;;;;5075066;28;20063;-36
2024/02/02 06:40:46;;;;;;;17.17;3.80;;;6.80;89.90;;;;;;5075092;28;20035;-35
2024/02/02 06:43:11;;;;;;;13.95;4.05;;;6.80;90.00;;;;;;5075018;28;20028;-34
2024/02/02 06:45:37;;;;;;;12.30;4.10;;;6.70;90.00;;;;;;5075322;28;20632;-34
2024/02/02 06:48:04;;;;;;;17.25;4.82;;;6.70;90.10;;;;;;5074931;28;20435;-33
2024/02/02 06:50:30;;;;;;;17.90;4.32;;;6.70;90.10;;;;;;5075051;28;20044;-33
2024/02/02 06:52:56;;;;;;;15.38;4.13;;;6.80;90.20;;;;;;5073489;28;20465;-36
2024/02/02 06:55:21;;;;;;;13.98;4.07;;;6.80;90.20;;;;;;5075073;28;20027;-35
2024/02/02 06:57:47;;;;;;;16.27;4.32;;;6.80;90.20;;;;;;5075004;28;20448;-35
2024/02/02 07:00:15;;;;;;;17.08;3.83;;;6.80;90.20;;;;;;5075056;28;20016;-38
2024/02/02 07:02:43;;;;;;;19.38;4.88;;;6.80;90.20;;;;;;5074523;28;20111;-35
2024/02/02 07:05:09;;;;;;;16.85;4.03;;;6.80;90.30;;;;;;5074847;28;20044;-34
2024/02/02 07:07:35;;;;;;;19.40;4.53;;;6.90;90.30;;;;;;5074321;28;20043;-34
2024/02/02 07:10:01;;;;;;;11.55;4.30;;;6.90;90.30;;;;;;5074555;28;20513;-34
2024/02/02 07:12:51;;;;;;;21.77;4.35;;;6.90;90.40;;;;;;5074545;28;20520;-34
2024/02/02 07:15:18;;;;;;;18.77;4.95;;;6.80;90.40;;;;;;5074675;28;20025;-34
2024/02/02 07:17:45;;;;;;;21.80;4.93;;;6.80;90.40;;;;;;5074112;28;20028;-34
2024/02/02 07:20:23;;;;;;;17.48;4.60;;;6.90;90.40;;;;;;5074396;28;20025;-33
2024/02/02 07:22:53;;;;;;;13.50;4.78;;;6.80;90.40;;;;;;5074368;28;20495;-33
2024/02/02 07:25:20;;;;;;;20.95;4.45;;;6.90;90.50;;;;;;5074376;28;20036;-34
2024/02/02 07:27:55;;;;;;;17.63;5.10;;;6.90;90.50;;;;;;5074044;28;20050;-35
2024/02/02 07:30:44;;;;;;;17.00;5.20;;;6.90;90.50;;;;;;5074113;28;20017;-34
2024/02/02 07:33:38;;;;;;;17.85;4.65;;;6.90;90.50;;;;;;5074399;28;20032;-32
2024/02/02 07:36:05;;;;;;;18.45;4.88;;;7.00;90.60;;;;;;5073865;28;20115;-34
2024/02/02 07:38:50;;;;;;;20.70;6.32;;;7.00;90.60;;;;;;5074135;28;20424;-33
2024/02/02 07:41:16;;;;;;;18.55;5.57;;;7.00;90.60;;;;;;5073886;28;20089;-35
2024/02/02 07:43:44;;;;;;;24.38;5.65;;;7.00;90.70;;;;;;5073856;28;20048;-34
2024/02/02 07:46:10;;;;;;;20.33;5.25;;;7.00;90.90;;;;;;5074159;28;20029;-34
2024/02/02 07:48:37;;;;;;;20.23;5.82;;;7.00;90.70;;;;;;5073587;28;20033;-35
2024/02/02 07:51:04;;;;;;;18.65;6.00;;;7.00;90.70;;;;;;5074316;28;20405;-33
2024/02/02 07:53:29;;;;;;;25.27;6.38;;;7.00;90.80;;;;;;5074111;28;20032;-35
2024/02/02 07:55:55;;;;;;;15.40;5.85;;;7.10;90.80;;;;;;5074312;28;20367;-35
2024/02/02 07:58:20;;;;;;;22.63;6.60;;;7.10;90.80;;;;;;5073624;28;20248;-35
2024/02/02 08:00:47;;;;;;;17.73;7.03;;;7.10;90.90;;;;;;5074014;28;20086;-36
2024/02/02 08:03:13;;;;;;;26.05;8.60;;;7.10;90.90;;;;;;5073599;28;20046;-34
2024/02/02 08:05:39;;;;;;;24.58;8.73;;;7.10;90.90;;;;;;5073770;28;20020;-34
2024/02/02 08:08:04;;;;;;;28.73;9.80;;;7.10;90.90;;;;;;5073222;28;20024;-35
2024/02/02 08:10:30;;;;;;;24.55;8.32;;;7.10;91.00;;;;;;5073511;28;20021;-33
2024/02/02 08:12:56;;;;;;;34.97;9.25;;;7.10;91.00;;;;;;5073586;28;20020;-35
2024/02/02 08:15:22;;;;;;;28.80;9.05;;;7.10;91.10;;;;;;5073484;28;20017;-34
2024/02/02 08:17:49;;;;;;;19.65;8.00;;;7.10;91.10;;;;;;5073100;28;20461;-33
2024/02/02 08:20:15;;;;;;;30.90;9.88;;;7.20;91.30;;;;;;5073673;28;20119;-34
2024/02/02 08:22:44;;;;;;;26.30;9.35;;;7.20;91.20;;;;;;5073125;28;20063;-35
2024/02/02 08:25:10;;;;;;;26.38;8.82;;;7.30;91.20;;;;;;5073540;28;20520;-35
2024/02/02 08:27:37;;;;;;;31.83;10.48;;;7.30;91.20;;;;;;5072930;28;20025;-34
2024/02/02 08:30:07;;;;;;;29.67;10.27;;;7.30;91.20;;;;;;5073328;28;20024;-34
2024/02/02 08:32:33;;;;;;;31.60;11.43;;;7.30;91.20;;;;;;5073153;28;20016;-33
2024/02/02 08:34:59;;;;;;;26.50;10.57;;;7.30;91.20;;;;;;5072826;28;20110;-33
2024/02/02 08:37:25;;;;;;;31.10;10.43;;;7.30;91.20;;;;;;5072848;28;20431;-35
2024/02/02 08:39:52;;;;;;;28.27;10.60;;;7.30;91.20;;;;;;5073130;28;20507;-34
2024/02/02 08:42:22;;;;;;;30.35;10.07;;;7.40;91.30;;;;;;5072301;28;20432;-34
2024/02/02 08:44:48;;;;;;;26.75;10.07;;;7.40;91.30;;;;;;5072984;28;20028;-34
2024/02/02 08:47:14;;;;;;;25.00;9.93;;;7.40;91.30;;;;;;5072367;28;20391;-34
2024/02/02 08:49:59;;;;;;;26.85;10.63;;;7.40;91.30;;;;;;5071938;28;20024;-32
2024/02/02 08:52:31;;;;;;;25.40;10.05;;;7.40;91.30;;;;;;5071698;28;20036;-34
2024/02/02 08:54:58;;;;;;;23.53;9.00;;;7.40;91.30;;;;;;5071327;28;20063;-35
2024/02/02 08:57:44;;;;;;;26.65;9.27;;;7.40;91.30;;;;;;5071177;28;20032;-34
2024/02/02 09:00:14;;;;;;;23.48;8.88;;;7.50;91.40;;;;;;5071523;28;20025;-34
2024/02/02 09:03:07;;;;;;;31.20;10.00;;;7.50;91.40;;;;;;5071249;28;20107;-35
2024/02/02 09:06:02;;;;;;;29.17;9.70;;;7.50;91.40;;;;;;5072961;28;20054;-35
2024/02/02 09:08:34;;;;;;;26.50;9.23;;;7.50;91.40;;;;;;5072072;28;20119;-34
2024/02/02 09:10:59;;;;;;;28.23;9.98;;;7.50;91.40;;;;;;5072561;28;20020;-35
2024/02/02 09:13:30;;;;;;;26.13;9.65;;;7.60;91.40;;;;;;5072547;28;20116;-35
2024/02/02 09:15:56;;;;;;;30.00;10.13;;;7.60;91.50;;;;;;5072399;28;20423;-35
2024/02/02 09:18:30;;;;;;;25.48;9.20;;;7.60;91.50;;;;;;5072004;28;20036;-34
2024/02/02 09:20:56;;;;;;;27.95;10.18;;;7.60;91.50;;;;;;5072194;28;20070;-34
2024/02/02 09:23:22;;;;;;;24.75;9.95;;;7.70;91.50;;;;;;5072116;28;20032;-34
2024/02/02 09:25:47;;;;;;;30.40;9.00;;;7.70;91.40;;;;;;5071988;28;20545;-33
2024/02/02 09:28:25;;;;;;;30.33;10.63;;;7.70;91.40;;;;;;5071822;28;20032;-34
2024/02/02 09:31:05;;;;;;;32.58;10.75;;;7.80;91.40;;;;;;5072076;28;20051;-33
2024/02/02 09:33:31;;;;;;;27.85;10.15;;;7.80;91.40;;;;;;5072226;28;20404;-35
2024/02/02 09:36:03;;;;;;;25.70;9.52;;;7.80;91.50;;;;;;5071769;28;20041;-36
2024/02/02 09:38:32;;;;;;;29.90;10.07;;;7.80;91.50;;;;;;5071810;28;20040;-32
2024/02/02 09:41:00;;;;;;;29.42;10.38;;;7.80;91.50;;;;;;5071877;28;20033;-34
2024/02/02 09:43:46;;;;;;;28.25;10.82;;;7.80;91.50;;;;;;5071760;28;20111;-34
2024/02/02 09:46:29;;;;;;;21.70;9.23;;;7.90;91.60;;;;;;5071788;28;20082;-32
2024/02/02 09:49:37;;;;;;;30.83;11.50;;;7.90;91.60;;;;;;5071501;28;20036;-34
2024/02/02 09:52:23;;;;;;;25.80;10.30;;;7.90;91.60;;;;;;5071141;28;20098;-33
2024/02/02 09:54:55;;;;;;;32.72;11.02;;;7.90;91.60;;;;;;5070737;28;20500;-33
2024/02/02 09:57:49;;;;;;;25.90;11.65;;;7.90;91.70;;;;;;5071599;28;20039;-33
2024/02/02 10:00:33;;;;;;;36.60;12.20;;;8.00;91.70;;;;;;5071597;28;20028;-34
2024/02/02 10:03:34;;;;;;;26.10;10.10;;;8.00;91.70;;;;;;5071480;28;20539;-34
2024/02/02 10:06:38;;;;;;;30.88;10.18;;;8.10;91.80;;;;;;5071417;28;20483;-34
2024/02/02 10:09:46;;;;;;;38.50;11.82;;;8.10;91.70;;;;;;5069988;28;20040;-39
2024/02/02 10:12:29;;;;;;;32.60;11.43;;;8.10;91.70;;;;;;5071403;28;20032;-34
2024/02/02 10:15:16;;;;;;;24.02;11.20;;;8.20;91.80;;;;;;5071348;28;20081;-34
2024/02/02 10:18:05;;;;;;;29.73;11.77;;;8.20;91.70;;;;;;5071250;28;20036;-34
2024/02/02 10:20:52;;;;;;;33.20;11.32;;;8.20;91.70;;;;;;5071521;28;20036;-33
2024/02/02 10:23:49;;;;;;;36.60;12.20;;;8.20;91.80;;;;;;5071526;28;20146;-35
2024/02/02 10:26:42;;;;;;;29.67;11.27;;;8.20;91.80;;;;;;5071239;28;20041;-34
2024/02/02 10:29:14;;;;;;;25.17;10.25;;;8.30;91.80;;;;;;5071206;28;20123;-34
2024/02/02 10:32:02;;;;;;;26.73;11.43;;;8.30;91.80;;;;;;5071345;28;20465;-34
2024/02/02 10:34:30;;;;;;;30.50;11.70;;;8.30;91.80;;;;;;5071331;28;20052;-35
2024/02/02 10:37:14;;;;;;;27.92;12.00;;;8.40;91.80;;;;;;5071191;28;20040;-35
2024/02/02 10:39:58;;;;;;;29.45;12.18;;;8.30;91.80;;;;;;5071322;28;20309;-34
2024/02/02 10:43:01;;;;;;;23.02;10.68;;;8.30;91.80;;;;;;5071472;28;20043;-34
2024/02/02 10:45:32;;;;;;;28.33;12.15;;;8.40;91.90;;;;;;5071800;28;20465;-35
2024/02/02 10:47:57;;;;;;;25.75;11.18;;;8.40;91.90;;;;;;5071199;28;20104;-35
2024/02/02 10:50:26;;;;;;;25.25;9.98;;;8.40;91.90;;;;;;5071086;28;20064;-35
2024/02/02 10:53:17;;;;;;;25.20;11.63;;;8.50;91.90;;;;;;5071096;28;20108;-34
2024/02/02 10:55:52;;;;;;;22.58;9.70;;;8.50;91.90;;;;;;5071164;28;20036;-35
2024/02/02 10:58:32;;;;;;;30.60;10.82;;;8.50;91.80;;;;;;5071073;28;20024;-35
2024/02/02 11:01:34;;;;;;;21.58;9.68;;;8.60;92.10;;;;;;5071004;28;20036;-34
2024/02/02 11:04:14;;;;;;;24.60;9.57;;;8.60;91.80;;;;;;5071109;28;20389;-34
2024/02/02 11:07:01;;;;;;;24.50;9.55;;;8.70;91.80;;;;;;5074082;28;20036;-34
2024/02/02 11:09:46;;;;;;;28.80;11.48;;;8.70;91.70;;;;;;5075009;28;20027;-34
2024/02/02 11:12:42;;;;;;;26.45;12.13;;;8.80;91.70;;;;;;5074699;28;20060;-33
2024/02/02 11:15:22;;;;;;;24.33;10.48;;;8.80;91.70;;;;;;5074860;28;20028;-34
2024/02/02 11:18:04;;;;;;;25.27;11.73;;;8.70;91.70;;;;;;5074248;28;20141;-33
2024/02/02 11:20:48;;;;;;;24.95;11.18;;;8.80;91.70;;;;;;5074617;28;20075;-33
2024/02/02 11:23:24;;;;;;;27.08;12.52;;;8.80;91.70;;;;;;5074527;28;20078;-33
2024/02/02 11:26:05;;;;;;;28.52;11.75;;;8.80;91.70;;;;;;5074608;28;20035;-33
2024/02/02 11:28:55;;;;;;;28.02;12.68;;;8.80;91.70;;;;;;5074263;28;20040;-33
2024/02/02 11:31:43;;;;;;;31.35;12.25;;;8.90;91.70;;;;;;5074399;28;20078;-35
2024/02/02 11:34:33;;;;;;;26.42;11.95;;;8.90;91.70;;;;;;5074266;28;20040;-34
2024/02/02 11:37:29;;;;;;;24.67;12.38;;;8.90;91.70;;;;;;5074436;28;20037;-33
2024/02/02 11:39:56;;;;;;;34.40;13.77;;;8.90;91.70;;;;;;5073986;28;20040;-36
2024/02/02 11:42:24;;;;;;;25.42;11.73;;;8.90;91.70;;;;;;5074373;28;20134;-34
2024/02/02 11:44:54;;;;;;;27.80;11.95;;;8.90;91.70;;;;;;5074077;28;20025;-33
2024/02/02 11:47:22;;;;;;;32.30;13.25;;;9.00;91.70;;;;;;5073765;28;20123;-34
2024/02/02 11:49:53;;;;;;;30.73;13.77;;;8.90;91.70;;;;;;5074404;28;20099;-34
2024/02/02 11:52:29;;;;;;;27.98;11.80;;;8.90;91.70;;;;;;5073850;28;20473;-35
2024/02/02 11:55:07;;;;;;;30.20;12.23;;;8.90;91.70;;;;;;5074200;28;20040;-35
2024/02/02 11:57:36;;;;;;;26.85;11.60;;;9.00;91.80;;;;;;5074048;28;20040;-32
2024/02/02 12:00:05;;;;;;;27.02;12.50;;;9.00;91.80;;;;;;5073889;28;20435;-34
2024/02/02 12:02:50;;;;;;;26.80;11.52;;;8.90;91.80;;;;;;5073951;28;20385;-33
2024/02/02 12:05:24;;;;;;;30.00;12.98;;;9.00;91.80;;;;;;5073688;28;20090;-34
2024/02/02 12:08:16;;;;;;;25.30;12.65;;;9.00;91.90;;;;;;5073617;28;20029;-34
2024/02/02 12:10:43;;;;;;;28.23;12.95;;;8.90;91.90;;;;;;5073966;28;20549;-33
2024/02/02 12:13:16;;;;;;;31.27;11.65;;;8.90;91.90;;;;;;5073835;28;20016;-34
2024/02/02 12:15:41;;;;;;;30.23;13.32;;;8.90;92.00;;;;;;5073508;28;20074;-34
2024/02/02 12:18:07;;;;;;;32.15;13.10;;;8.90;92.10;;;;;;5072499;28;20099;-35
2024/02/02 12:20:33;;;;;;;24.13;11.80;;;8.90;92.10;;;;;;5073475;28;20032;-33
2024/02/02 12:22:59;;;;;;;24.25;11.93;;;8.80;92.20;;;;;;5073635;28;20538;-35
2024/02/02 12:25:25;;;;;;;25.80;11.98;;;8.90;92.20;;;;;;5073422;28;20035;-34
2024/02/02 12:27:51;;;;;;;28.15;12.27;;;8.90;92.20;;;;;;5073004;28;20121;-34
2024/02/02 12:30:16;;;;;;;31.10;12.45;;;8.90;92.30;;;;;;5073205;28;20518;-34
2024/02/02 12:32:53;;;;;;;29.80;12.80;;;8.90;92.30;;;;;;5071997;28;20111;-33
2024/02/02 12:35:22;;;;;;;26.23;12.18;;;8.90;92.40;;;;;;5073012;28;20040;-35
2024/02/02 12:37:48;;;;;;;29.50;12.95;;;8.90;92.40;;;;;;5073008;28;20444;-36
2024/02/02 12:40:15;;;;;;;26.63;11.95;;;8.90;92.50;;;;;;5073235;28;20032;-35
2024/02/02 12:42:41;;;;;;;33.80;12.68;;;8.90;92.50;;;;;;5073080;28;20028;-34
2024/02/02 12:45:12;;;;;;;27.60;13.00;;;8.90;92.50;;;;;;5072874;28;20063;-34
2024/02/02 12:47:40;;;;;;;30.15;14.52;;;8.90;92.60;;;;;;5072424;28;20025;-34
2024/02/02 12:50:15;;;;;;;28.50;12.95;;;8.90;92.60;;;;;;5073032;28;20085;-34
2024/02/02 12:52:42;;;;;;;37.85;13.38;;;9.00;92.60;;;;;;5073073;28;20052;-34
2024/02/02 12:55:08;;;;;;;32.10;14.10;;;9.00;92.60;;;;;;5073065;28;20028;-34
2024/02/02 12:57:36;;;;;;;31.42;13.90;;;9.00;92.60;;;;;;5072875;28;20081;-34